sensor_id;sensor_type;location;lat;lon;timestamp;pressure;altitude;pressure_sealevel;temperature;humidity
72116;BME280;59991;52.140;5.428;2023-05-25T00:00:26;102663.22;;;10.93;82.07
72116;BME280;59991;52.140;5.428;2023-05-25T00:00:59;102650.72;;;10.92;82.24
72116;BME280;59991;52.140;5.428;2023-05-25T00:01:34;102664.34;;;10.92;81.89
72116;BME280;59991;52.140;5.428;2023-05-25T00:02:05;102659.22;;;10.91;82.04
72116;BME280;59991;52.140;5.428;2023-05-25T00:02:37;102657.31;;;10.91;81.97
72116;BME280;59991;52.140;5.428;2023-05-25T00:03:16;102655.69;;;10.90;82.11
72116;BME280;59991;52.140;5.428;2023-05-25T00:03:48;102656.03;;;10.89;81.88
72116;BME280;59991;52.140;5.428;2023-05-25T00:04:22;102660.34;;;10.90;82.05
72116;BME280;59991;52.140;5.428;2023-05-25T00:04:57;102656.03;;;10.89;82.08
72116;BME280;59991;52.140;5.428;2023-05-25T00:05:31;102656.84;;;10.89;82.41
72116;BME280;59991;52.140;5.428;2023-05-25T00:06:02;102656.38;;;10.87;81.73
72116;BME280;59991;52.140;5.428;2023-05-25T00:06:35;102653.63;;;10.87;82.03
72116;BME280;59991;52.140;5.428;2023-05-25T00:07:11;102656.38;;;10.87;82.02
72116;BME280;59991;52.140;5.428;2023-05-25T00:07:42;102658.28;;;10.87;82.23
72116;BME280;59991;52.140;5.428;2023-05-25T00:08:14;102656.69;;;10.86;82.07
72116;BME280;59991;52.140;5.428;2023-05-25T00:08:45;102655.44;;;10.83;81.91
72116;BME280;59991;52.140;5.428;2023-05-25T00:09:18;102655.91;;;10.85;81.64
72116;BME280;59991;52.140;5.428;2023-05-25T00:09:49;102656.56;;;10.82;81.71
72116;BME280;59991;52.140;5.428;2023-05-25T00:10:21;102653.50;;;10.84;81.85
72116;BME280;59991;52.140;5.428;2023-05-25T00:10:54;102656.56;;;10.82;81.75
72116;BME280;59991;52.140;5.428;2023-05-25T00:11:26;102648.72;;;10.81;81.90
72116;BME280;59991;52.140;5.428;2023-05-25T00:11:57;102653.38;;;10.80;81.92
72116;BME280;59991;52.140;5.428;2023-05-25T00:12:30;102649.84;;;10.80;81.19
72116;BME280;59991;52.140;5.428;2023-05-25T00:13:01;102657.22;;;10.79;80.86
72116;BME280;59991;52.140;5.428;2023-05-25T00:13:33;102659.97;;;10.79;81.49
72116;BME280;59991;52.140;5.428;2023-05-25T00:14:04;102653.69;;;10.79;81.92
72116;BME280;59991;52.140;5.428;2023-05-25T00:14:37;102654.41;;;10.76;81.83
72116;BME280;59991;52.140;5.428;2023-05-25T00:15:08;102650.53;;;10.77;82.12
72116;BME280;59991;52.140;5.428;2023-05-25T00:15:40;102650.53;;;10.77;81.91
72116;BME280;59991;52.140;5.428;2023-05-25T00:16:12;102647.34;;;10.75;81.92
72116;BME280;59991;52.140;5.428;2023-05-25T00:16:44;102655.84;;;10.73;82.41
72116;BME280;59991;52.140;5.428;2023-05-25T00:17:18;102652.00;;;10.74;82.38
72116;BME280;59991;52.140;5.428;2023-05-25T00:17:50;102653.13;;;10.73;82.29
72116;BME280;59991;52.140;5.428;2023-05-25T00:18:24;102656.19;;;10.71;82.40
72116;BME280;59991;52.140;5.428;2023-05-25T00:18:57;102652.66;;;10.71;82.41
72116;BME280;59991;52.140;5.428;2023-05-25T00:19:29;102650.59;;;10.68;82.57
72116;BME280;59991;52.140;5.428;2023-05-25T00:20:04;102657.66;;;10.69;82.48
72116;BME280;59991;52.140;5.428;2023-05-25T00:20:37;102657.66;;;10.69;82.53
72116;BME280;59991;52.140;5.428;2023-05-25T00:21:09;102657.66;;;10.69;82.65
72116;BME280;59991;52.140;5.428;2023-05-25T00:21:42;102661.84;;;10.66;82.60
72116;BME280;59991;52.140;5.428;2023-05-25T00:22:14;102665.38;;;10.67;82.98
72116;BME280;59991;52.140;5.428;2023-05-25T00:22:46;102659.09;;;10.66;82.79
72116;BME280;59991;52.140;5.428;2023-05-25T00:23:17;102665.69;;;10.65;82.71
72116;BME280;59991;52.140;5.428;2023-05-25T00:23:49;102659.31;;;10.61;82.65
72116;BME280;59991;52.140;5.428;2023-05-25T00:24:20;102664.91;;;10.65;82.62
72116;BME280;59991;52.140;5.428;2023-05-25T00:24:52;102660.09;;;10.62;82.76
72116;BME280;59991;52.140;5.428;2023-05-25T00:25:23;102663.63;;;10.62;82.53
72116;BME280;59991;52.140;5.428;2023-05-25T00:25:54;102658.16;;;10.62;82.76
72116;BME280;59991;52.140;5.428;2023-05-25T00:26:26;102662.81;;;10.62;82.89
72116;BME280;59991;52.140;5.428;2023-05-25T00:26:58;102667.47;;;10.61;82.99
72116;BME280;59991;52.140;5.428;2023-05-25T00:27:29;102662.34;;;10.60;82.73
72116;BME280;59991;52.140;5.428;2023-05-25T00:28:01;102662.69;;;10.58;82.34
72116;BME280;59991;52.140;5.428;2023-05-25T00:28:34;102668.63;;;10.60;82.59
72116;BME280;59991;52.140;5.428;2023-05-25T00:29:06;102658.84;;;10.59;82.86
72116;BME280;59991;52.140;5.428;2023-05-25T00:29:37;102665.09;;;10.60;82.62
72116;BME280;59991;52.140;5.428;2023-05-25T00:30:09;102666.22;;;10.59;82.86
72116;BME280;59991;52.140;5.428;2023-05-25T00:30:41;102665.41;;;10.58;82.33
72116;BME280;59991;52.140;5.428;2023-05-25T00:31:13;102661.13;;;10.57;82.66
72116;BME280;59991;52.140;5.428;2023-05-25T00:31:44;102666.91;;;10.56;82.63
72116;BME280;59991;52.140;5.428;2023-05-25T00:32:16;102664.19;;;10.56;82.57
72116;BME280;59991;52.140;5.428;2023-05-25T00:32:47;102665.63;;;10.53;82.69
72116;BME280;59991;52.140;5.428;2023-05-25T00:33:19;102660.19;;;10.53;83.11
72116;BME280;59991;52.140;5.428;2023-05-25T00:33:50;102665.63;;;10.53;82.77
72116;BME280;59991;52.140;5.428;2023-05-25T00:34:22;102657.00;;;10.51;82.66
72116;BME280;59991;52.140;5.428;2023-05-25T00:34:54;102667.56;;;10.53;82.67
72116;BME280;59991;52.140;5.428;2023-05-25T00:35:25;102668.69;;;10.52;82.61
72116;BME280;59991;52.140;5.428;2023-05-25T00:35:57;102660.38;;;10.48;82.73
72116;BME280;59991;52.140;5.428;2023-05-25T00:36:28;102670.63;;;10.51;82.59
72116;BME280;59991;52.140;5.428;2023-05-25T00:37:00;102668.56;;;10.48;83.11
72116;BME280;59991;52.140;5.428;2023-05-25T00:37:32;102668.56;;;10.48;82.62
72116;BME280;59991;52.140;5.428;2023-05-25T00:38:03;102679.47;;;10.48;82.77
72116;BME280;59991;52.140;5.428;2023-05-25T00:38:35;102677.88;;;10.47;82.75
72116;BME280;59991;52.140;5.428;2023-05-25T00:39:06;102672.28;;;10.44;83.19
72116;BME280;59991;52.140;5.428;2023-05-25T00:39:38;102679.78;;;10.47;82.94
72116;BME280;59991;52.140;5.428;2023-05-25T00:40:15;102679.97;;;10.42;83.13
72116;BME280;59991;52.140;5.428;2023-05-25T00:40:47;102675.66;;;10.41;83.07
72116;BME280;59991;52.140;5.428;2023-05-25T00:41:19;102673.72;;;10.41;82.90
72116;BME280;59991;52.140;5.428;2023-05-25T00:41:51;102687.03;;;10.43;82.94
72116;BME280;59991;52.140;5.428;2023-05-25T00:42:23;102679.97;;;10.42;82.97
72116;BME280;59991;52.140;5.428;2023-05-25T00:42:54;102684.63;;;10.41;82.54
72116;BME280;59991;52.140;5.428;2023-05-25T00:43:26;102676.00;;;10.39;82.72
72116;BME280;59991;52.140;5.428;2023-05-25T00:43:57;102676.78;;;10.39;82.70
72116;BME280;59991;52.140;5.428;2023-05-25T00:44:29;102683.03;;;10.40;82.17
72116;BME280;59991;52.140;5.428;2023-05-25T00:45:02;102676.78;;;10.39;82.58
72116;BME280;59991;52.140;5.428;2023-05-25T00:45:34;102681.47;;;10.39;82.77
72116;BME280;59991;52.140;5.428;2023-05-25T00:46:06;102679.06;;;10.37;82.35
72116;BME280;59991;52.140;5.428;2023-05-25T00:46:38;102677.78;;;10.35;82.10
72116;BME280;59991;52.140;5.428;2023-05-25T00:47:10;102677.47;;;10.36;82.60
72116;BME280;59991;52.140;5.428;2023-05-25T00:47:43;102673.16;;;10.35;82.44
72116;BME280;59991;52.140;5.428;2023-05-25T00:48:14;102675.88;;;10.35;82.65
72116;BME280;59991;52.140;5.428;2023-05-25T00:48:46;102668.81;;;10.34;82.49
72116;BME280;59991;52.140;5.428;2023-05-25T00:49:19;102669.94;;;10.33;82.80
72116;BME280;59991;52.140;5.428;2023-05-25T00:49:51;102672.19;;;10.31;82.98
72116;BME280;59991;52.140;5.428;2023-05-25T00:50:35;102680.38;;;10.31;82.84
72116;BME280;59991;52.140;5.428;2023-05-25T00:51:09;102677.97;;;10.30;83.02
72116;BME280;59991;52.140;5.428;2023-05-25T00:51:41;102683.09;;;10.31;82.90
72116;BME280;59991;52.140;5.428;2023-05-25T00:52:16;102677.97;;;10.30;83.09
72116;BME280;59991;52.140;5.428;2023-05-25T00:52:48;102675.59;;;10.28;83.28
72116;BME280;59991;52.140;5.428;2023-05-25T00:53:20;102676.72;;;10.27;83.62
72116;BME280;59991;52.140;5.428;2023-05-25T00:53:52;102679.44;;;10.27;83.72
72116;BME280;59991;52.140;5.428;2023-05-25T00:54:23;102679.75;;;10.26;83.60
72116;BME280;59991;52.140;5.428;2023-05-25T00:54:58;102673.03;;;10.23;83.67
72116;BME280;59991;52.140;5.428;2023-05-25T00:55:38;102676.41;;;10.20;83.71
72116;BME280;59991;52.140;5.428;2023-05-25T00:56:17;102668.91;;;10.17;83.59
72116;BME280;59991;52.140;5.428;2023-05-25T00:56:56;102673.69;;;10.20;83.98
72116;BME280;59991;52.140;5.428;2023-05-25T00:57:28;102681.09;;;10.20;83.82
72116;BME280;59991;52.140;5.428;2023-05-25T00:58:04;102674.34;;;10.17;83.89
72116;BME280;59991;52.140;5.428;2023-05-25T00:58:38;102673.53;;;10.17;84.26
72116;BME280;59991;52.140;5.428;2023-05-25T00:59:15;102676.59;;;10.15;84.16
72116;BME280;59991;52.140;5.428;2023-05-25T00:59:50;102679.31;;;10.15;84.11
72116;BME280;59991;52.140;5.428;2023-05-25T01:00:22;102681.56;;;10.13;84.52
72116;BME280;59991;52.140;5.428;2023-05-25T01:00:56;102672.13;;;10.11;84.57
72116;BME280;59991;52.140;5.428;2023-05-25T01:01:30;102672.47;;;10.09;84.24
72116;BME280;59991;52.140;5.428;2023-05-25T01:02:06;102678.38;;;10.11;84.43
72116;BME280;59991;52.140;5.428;2023-05-25T01:02:39;102678.22;;;10.08;84.73
72116;BME280;59991;52.140;5.428;2023-05-25T01:03:14;102677.59;;;10.11;84.67
72116;BME280;59991;52.140;5.428;2023-05-25T01:03:54;102679.03;;;10.08;84.46
72116;BME280;59991;52.140;5.428;2023-05-25T01:04:28;102673.59;;;10.08;84.36
72116;BME280;59991;52.140;5.428;2023-05-25T01:05:01;102673.09;;;10.06;84.42
72116;BME280;59991;52.140;5.428;2023-05-25T01:05:37;102676.63;;;10.07;84.40
72116;BME280;59991;52.140;5.428;2023-05-25T01:06:16;102676.63;;;10.07;84.18
72116;BME280;59991;52.140;5.428;2023-05-25T01:06:49;102678.56;;;10.06;84.67
72116;BME280;59991;52.140;5.428;2023-05-25T01:07:22;102675.38;;;10.04;84.64
72116;BME280;59991;52.140;5.428;2023-05-25T01:07:58;102674.22;;;10.05;83.92
72116;BME280;59991;52.140;5.428;2023-05-25T01:08:33;102674.22;;;10.05;84.13
72116;BME280;59991;52.140;5.428;2023-05-25T01:09:07;102676.16;;;10.04;84.16
72116;BME280;59991;52.140;5.428;2023-05-25T01:09:41;102676.16;;;10.04;83.83
72116;BME280;59991;52.140;5.428;2023-05-25T01:10:15;102685.47;;;10.03;84.01
72116;BME280;59991;52.140;5.428;2023-05-25T01:10:48;102673.75;;;10.03;84.13
72116;BME280;59991;52.140;5.428;2023-05-25T01:11:28;102683.53;;;10.04;84.00
72116;BME280;59991;52.140;5.428;2023-05-25T01:12:02;102682.75;;;10.03;83.89
72116;BME280;59991;52.140;5.428;2023-05-25T01:12:36;102675.91;;;9.97;83.90
72116;BME280;59991;52.140;5.428;2023-05-25T01:13:08;102685.00;;;10.01;83.68
72116;BME280;59991;52.140;5.428;2023-05-25T01:13:41;102679.09;;;9.99;83.70
72116;BME280;59991;52.140;5.428;2023-05-25T01:14:17;102681.47;;;10.01;83.54
72116;BME280;59991;52.140;5.428;2023-05-25T01:14:49;102683.41;;;10.00;83.87
72116;BME280;59991;52.140;5.428;2023-05-25T01:15:23;102678.28;;;9.99;83.87
72116;BME280;59991;52.140;5.428;2023-05-25T01:15:56;102679.09;;;9.99;84.18
72116;BME280;59991;52.140;5.428;2023-05-25T01:16:28;102685.34;;;10.00;83.86
72116;BME280;59991;52.140;5.428;2023-05-25T01:17:00;102679.75;;;9.96;83.86
72116;BME280;59991;52.140;5.428;2023-05-25T01:17:34;102684.72;;;9.94;83.95
72116;BME280;59991;52.140;5.428;2023-05-25T01:18:08;102684.41;;;9.96;83.98
72116;BME280;59991;52.140;5.428;2023-05-25T01:18:40;102682.66;;;9.91;84.30
72116;BME280;59991;52.140;5.428;2023-05-25T01:19:12;102681.84;;;9.91;84.79
72116;BME280;59991;52.140;5.428;2023-05-25T01:19:43;102683.44;;;9.92;84.60
72116;BME280;59991;52.140;5.428;2023-05-25T01:20:25;102677.84;;;9.88;84.81
72116;BME280;59991;52.140;5.428;2023-05-25T01:21:06;102694.66;;;9.90;85.31
72116;BME280;59991;52.140;5.428;2023-05-25T01:21:54;102690.66;;;9.88;84.69
72116;BME280;59991;52.140;5.428;2023-05-25T01:22:46;102692.59;;;9.87;85.34
72116;BME280;59991;52.140;5.428;2023-05-25T01:23:25;102691.78;;;9.87;84.98
72116;BME280;59991;52.140;5.428;2023-05-25T01:24:05;102685.88;;;9.85;85.26
72116;BME280;59991;52.140;5.428;2023-05-25T01:24:54;102687.00;;;9.84;85.30
72116;BME280;59991;52.140;5.428;2023-05-25T01:25:33;102685.41;;;9.83;84.97
72116;BME280;59991;52.140;5.428;2023-05-25T01:26:08;102686.19;;;9.83;85.46
72116;BME280;59991;52.140;5.428;2023-05-25T01:26:46;102685.41;;;9.83;85.12
72116;BME280;59991;52.140;5.428;2023-05-25T01:27:25;102684.59;;;9.82;85.47
72116;BME280;59991;52.140;5.428;2023-05-25T01:28:10;102683.34;;;9.80;85.11
72116;BME280;59991;52.140;5.428;2023-05-25T01:28:50;102690.72;;;9.79;85.07
72116;BME280;59991;52.140;5.428;2023-05-25T01:29:23;102690.72;;;9.79;84.75
72116;BME280;59991;52.140;5.428;2023-05-25T01:29:57;102689.91;;;9.79;85.06
72116;BME280;59991;52.140;5.428;2023-05-25T01:30:31;102689.13;;;9.78;84.74
72116;BME280;59991;52.140;5.428;2023-05-25T01:31:04;102692.97;;;9.77;84.91
72116;BME280;59991;52.140;5.428;2023-05-25T01:31:38;102692.97;;;9.77;84.59
72116;BME280;59991;52.140;5.428;2023-05-25T01:32:11;102691.84;;;9.78;84.65
72116;BME280;59991;52.140;5.428;2023-05-25T01:32:44;102691.03;;;9.78;84.90
72116;BME280;59991;52.140;5.428;2023-05-25T01:33:18;102695.69;;;9.77;84.56
72116;BME280;59991;52.140;5.428;2023-05-25T01:33:52;102693.78;;;9.78;84.85
72116;BME280;59991;52.140;5.428;2023-05-25T01:34:24;102698.41;;;9.77;84.88
72116;BME280;59991;52.140;5.428;2023-05-25T01:34:58;102699.53;;;9.76;85.10
72116;BME280;59991;52.140;5.428;2023-05-25T01:35:31;102689.78;;;9.75;85.02
72116;BME280;59991;52.140;5.428;2023-05-25T01:36:04;102687.38;;;9.74;85.24
72116;BME280;59991;52.140;5.428;2023-05-25T01:36:36;102688.97;;;9.75;85.00
72116;BME280;59991;52.140;5.428;2023-05-25T01:37:08;102689.28;;;9.73;85.25
72116;BME280;59991;52.140;5.428;2023-05-25T01:37:44;102690.41;;;9.72;85.45
72116;BME280;59991;52.140;5.428;2023-05-25T01:38:16;102686.56;;;9.73;85.48
72116;BME280;59991;52.140;5.428;2023-05-25T01:38:48;102687.69;;;9.72;85.68
72116;BME280;59991;52.140;5.428;2023-05-25T01:39:21;102687.69;;;9.72;85.70
72116;BME280;59991;52.140;5.428;2023-05-25T01:39:53;102689.63;;;9.72;85.69
72116;BME280;59991;52.140;5.428;2023-05-25T01:40:26;102686.41;;;9.69;85.97
72116;BME280;59991;52.140;5.428;2023-05-25T01:40:57;102686.41;;;9.69;86.10
72116;BME280;59991;52.140;5.428;2023-05-25T01:41:28;102682.91;;;9.69;86.09
72116;BME280;59991;52.140;5.428;2023-05-25T01:42:00;102689.94;;;9.70;85.71
72116;BME280;59991;52.140;5.428;2023-05-25T01:42:31;102680.81;;;9.66;85.97
72116;BME280;59991;52.140;5.428;2023-05-25T01:43:03;102689.47;;;9.68;86.29
72116;BME280;59991;52.140;5.428;2023-05-25T01:43:35;102689.47;;;9.68;86.57
72116;BME280;59991;52.140;5.428;2023-05-25T01:44:06;102685.13;;;9.67;86.18
72116;BME280;59991;52.140;5.428;2023-05-25T01:44:38;102684.97;;;9.63;86.39
72116;BME280;59991;52.140;5.428;2023-05-25T01:45:12;102687.72;;;9.63;86.09
72116;BME280;59991;52.140;5.428;2023-05-25T01:45:44;102694.44;;;9.66;86.40
72116;BME280;59991;52.140;5.428;2023-05-25T01:46:32;102690.91;;;9.65;86.51
72116;BME280;59991;52.140;5.428;2023-05-25T01:49:35;102693.34;;;9.58;86.01
72116;BME280;59991;52.140;5.428;2023-05-25T01:51:03;102694.66;;;9.52;86.23
72116;BME280;59991;52.140;5.428;2023-05-25T01:51:38;102704.41;;;9.53;86.37
72116;BME280;59991;52.140;5.428;2023-05-25T01:52:21;102702.81;;;9.52;86.61
72116;BME280;59991;52.140;5.428;2023-05-25T01:53:06;102701.22;;;9.51;86.33
72116;BME280;59991;52.140;5.428;2023-05-25T01:53:42;102698.00;;;9.49;86.57
72116;BME280;59991;52.140;5.428;2023-05-25T01:54:20;102704.25;;;9.50;86.62
72116;BME280;59991;52.140;5.428;2023-05-25T01:55:10;102699.94;;;9.49;86.26
72116;BME280;59991;52.140;5.428;2023-05-25T01:55:54;102706.50;;;9.48;86.41
72116;BME280;59991;52.140;5.428;2023-05-25T01:56:29;102704.91;;;9.47;86.34
72116;BME280;59991;52.140;5.428;2023-05-25T01:57:05;102704.91;;;9.47;86.23
72116;BME280;59991;52.140;5.428;2023-05-25T01:57:41;102709.53;;;9.46;86.34
72116;BME280;59991;52.140;5.428;2023-05-25T01:58:14;102701.69;;;9.45;85.99
72116;BME280;59991;52.140;5.428;2023-05-25T01:58:47;102698.97;;;9.45;85.90
72116;BME280;59991;52.140;5.428;2023-05-25T01:59:21;102702.81;;;9.44;85.92
72116;BME280;59991;52.140;5.428;2023-05-25T01:59:56;102707.47;;;9.43;86.20
72116;BME280;59991;52.140;5.428;2023-05-25T02:00:33;102712.91;;;9.43;86.58
72116;BME280;59991;52.140;5.428;2023-05-25T02:01:07;102710.53;;;9.42;87.08
72116;BME280;59991;52.140;5.428;2023-05-25T02:01:41;102710.19;;;9.43;86.45
72116;BME280;59991;52.140;5.428;2023-05-25T02:02:17;102704.63;;;9.40;86.54
72116;BME280;59991;52.140;5.428;2023-05-25T02:02:50;102705.41;;;9.40;86.65
72116;BME280;59991;52.140;5.428;2023-05-25T02:03:22;102718.34;;;9.43;86.40
72116;BME280;59991;52.140;5.428;2023-05-25T02:03:58;102710.19;;;9.43;86.70
72116;BME280;59991;52.140;5.428;2023-05-25T02:04:30;102716.78;;;9.42;86.39
72116;BME280;59991;52.140;5.428;2023-05-25T02:05:02;102706.53;;;9.39;86.22
72116;BME280;59991;52.140;5.428;2023-05-25T02:05:34;102710.38;;;9.38;86.04
72116;BME280;59991;52.140;5.428;2023-05-25T02:06:06;102711.81;;;9.35;86.23
72116;BME280;59991;52.140;5.428;2023-05-25T02:06:38;102717.75;;;9.38;85.95
72116;BME280;59991;52.140;5.428;2023-05-25T02:07:09;102714.22;;;9.37;86.26
72116;BME280;59991;52.140;5.428;2023-05-25T02:07:41;102711.50;;;9.37;86.06
72116;BME280;59991;52.140;5.428;2023-05-25T02:08:12;102716.94;;;9.37;85.14
72116;BME280;59991;52.140;5.428;2023-05-25T02:08:44;102712.31;;;9.38;85.60
72116;BME280;59991;52.140;5.428;2023-05-25T02:09:16;102714.22;;;9.37;85.45
72116;BME280;59991;52.140;5.428;2023-05-25T02:09:47;102708.78;;;9.37;85.67
72116;BME280;59991;52.140;5.428;2023-05-25T02:10:19;102713.09;;;9.38;85.85
72116;BME280;59991;52.140;5.428;2023-05-25T02:10:50;102706.06;;;9.37;85.44
72116;BME280;59991;52.140;5.428;2023-05-25T02:11:22;102703.66;;;9.35;85.80
72116;BME280;59991;52.140;5.428;2023-05-25T02:11:53;102706.84;;;9.38;85.57
72116;BME280;59991;52.140;5.428;2023-05-25T02:12:25;102701.72;;;9.36;85.36
72116;BME280;59991;52.140;5.428;2023-05-25T02:12:56;102701.72;;;9.36;85.37
72116;BME280;59991;52.140;5.428;2023-05-25T02:13:28;102709.59;;;9.38;85.44
72116;BME280;59991;52.140;5.428;2023-05-25T02:13:59;102701.41;;;9.38;85.42
72116;BME280;59991;52.140;5.428;2023-05-25T02:14:31;102703.34;;;9.37;85.45
72116;BME280;59991;52.140;5.428;2023-05-25T02:15:03;102700.59;;;9.37;85.76
72116;BME280;59991;52.140;5.428;2023-05-25T02:15:34;102705.56;;;9.35;85.53
72116;BME280;59991;52.140;5.428;2023-05-25T02:16:06;102703.19;;;9.33;85.84
72116;BME280;59991;52.140;5.428;2023-05-25T02:16:38;102703.81;;;9.30;85.96
72116;BME280;59991;52.140;5.428;2023-05-25T02:17:10;102702.22;;;9.29;85.49
72116;BME280;59991;52.140;5.428;2023-05-25T02:17:43;102704.94;;;9.29;85.82
72116;BME280;59991;52.140;5.428;2023-05-25T02:18:14;102706.84;;;9.29;85.89
72116;BME280;59991;52.140;5.428;2023-05-25T02:18:48;102709.59;;;9.29;85.70
72116;BME280;59991;52.140;5.428;2023-05-25T02:19:21;102709.09;;;9.27;85.76
72116;BME280;59991;52.140;5.428;2023-05-25T02:19:52;102700.94;;;9.27;85.64
72116;BME280;59991;52.140;5.428;2023-05-25T02:20:25;102702.06;;;9.26;85.94
72116;BME280;59991;52.140;5.428;2023-05-25T02:20:57;102707.19;;;9.27;86.14
72116;BME280;59991;52.140;5.428;2023-05-25T02:21:28;102701.72;;;9.27;85.41
72116;BME280;59991;52.140;5.428;2023-05-25T02:22:00;102703.19;;;9.25;85.60
72116;BME280;59991;52.140;5.428;2023-05-25T02:22:31;102700.81;;;9.23;85.83
72116;BME280;59991;52.140;5.428;2023-05-25T02:23:08;102703.66;;;9.27;85.88
72116;BME280;59991;52.140;5.428;2023-05-25T02:23:39;102698.09;;;9.23;85.88
72116;BME280;59991;52.140;5.428;2023-05-25T02:24:11;102694.88;;;9.21;85.49
72116;BME280;59991;52.140;5.428;2023-05-25T02:24:45;102702.38;;;9.24;85.70
72116;BME280;59991;52.140;5.428;2023-05-25T02:25:16;102700.00;;;9.23;86.35
72116;BME280;59991;52.140;5.428;2023-05-25T02:25:48;102703.19;;;9.25;86.14
72116;BME280;59991;52.140;5.428;2023-05-25T02:26:21;102705.44;;;9.23;86.15
72116;BME280;59991;52.140;5.428;2023-05-25T02:26:53;102700.31;;;9.21;86.07
72116;BME280;59991;52.140;5.428;2023-05-25T02:27:24;102696.00;;;9.20;86.86
72116;BME280;59991;52.140;5.428;2023-05-25T02:27:56;102701.94;;;9.22;86.34
72116;BME280;59991;52.140;5.428;2023-05-25T02:28:27;102699.53;;;9.21;86.70
72116;BME280;59991;52.140;5.428;2023-05-25T02:28:59;102701.94;;;9.22;86.99
72116;BME280;59991;52.140;5.428;2023-05-25T02:29:34;102703.38;;;9.20;86.50
72116;BME280;59991;52.140;5.428;2023-05-25T02:30:06;102698.41;;;9.22;86.84
72116;BME280;59991;52.140;5.428;2023-05-25T02:30:38;102701.44;;;9.20;86.79
72116;BME280;59991;52.140;5.428;2023-05-25T02:31:10;102698.41;;;9.22;86.80
72116;BME280;59991;52.140;5.428;2023-05-25T02:31:41;102706.09;;;9.20;86.82
72116;BME280;59991;52.140;5.428;2023-05-25T02:32:13;102703.38;;;9.20;86.99
72116;BME280;59991;52.140;5.428;2023-05-25T02:32:44;102701.75;;;9.19;86.62
72116;BME280;59991;52.140;5.428;2023-05-25T02:33:16;102704.47;;;9.19;86.81
72116;BME280;59991;52.140;5.428;2023-05-25T02:33:49;102702.09;;;9.17;86.89
72116;BME280;59991;52.140;5.428;2023-05-25T02:34:20;102704.00;;;9.17;86.89
72116;BME280;59991;52.140;5.428;2023-05-25T02:34:52;102700.47;;;9.16;86.79
72116;BME280;59991;52.140;5.428;2023-05-25T02:35:23;102700.81;;;9.15;86.75
72116;BME280;59991;52.140;5.428;2023-05-25T02:35:55;102704.31;;;9.15;87.01
72116;BME280;59991;52.140;5.428;2023-05-25T02:36:26;102702.25;;;9.12;86.61
72116;BME280;59991;52.140;5.428;2023-05-25T02:36:59;102709.28;;;9.13;86.75
72116;BME280;59991;52.140;5.428;2023-05-25T02:37:31;102699.34;;;9.09;86.73
72116;BME280;59991;52.140;5.428;2023-05-25T02:38:04;102708.81;;;9.11;87.13
72116;BME280;59991;52.140;5.428;2023-05-25T02:38:35;102709.94;;;9.10;86.86
72116;BME280;59991;52.140;5.428;2023-05-25T02:39:07;102707.19;;;9.10;87.21
72116;BME280;59991;52.140;5.428;2023-05-25T02:39:39;102708.00;;;9.11;86.94
72116;BME280;59991;52.140;5.428;2023-05-25T02:40:11;102706.72;;;9.08;86.87
72116;BME280;59991;52.140;5.428;2023-05-25T02:40:44;102704.81;;;9.09;86.64
72116;BME280;59991;52.140;5.428;2023-05-25T02:41:17;102704.81;;;9.09;86.96
72116;BME280;59991;52.140;5.428;2023-05-25T02:41:49;102702.41;;;9.07;86.72
72116;BME280;59991;52.140;5.428;2023-05-25T02:42:21;102714.09;;;9.08;86.60
72116;BME280;59991;52.140;5.428;2023-05-25T02:42:52;102705.13;;;9.07;87.04
72116;BME280;59991;52.140;5.428;2023-05-25T02:43:23;102708.97;;;9.06;86.70
72116;BME280;59991;52.140;5.428;2023-05-25T02:43:55;102710.88;;;9.06;86.96
72116;BME280;59991;52.140;5.428;2023-05-25T02:44:26;102704.50;;;9.02;86.31
72116;BME280;59991;52.140;5.428;2023-05-25T02:44:58;102709.28;;;9.05;86.80
72116;BME280;59991;52.140;5.428;2023-05-25T02:45:29;102714.72;;;9.05;86.27
72116;BME280;59991;52.140;5.428;2023-05-25T02:46:01;102709.28;;;9.05;86.57
72116;BME280;59991;52.140;5.428;2023-05-25T02:46:33;102709.63;;;9.03;86.85
72116;BME280;59991;52.140;5.428;2023-05-25T02:47:05;102715.88;;;9.04;86.72
72116;BME280;59991;52.140;5.428;2023-05-25T02:47:37;102709.16;;;9.01;86.50
72116;BME280;59991;52.140;5.428;2023-05-25T02:48:09;102709.16;;;9.01;86.97
72116;BME280;59991;52.140;5.428;2023-05-25T02:48:41;102717.31;;;9.01;86.61
72116;BME280;59991;52.140;5.428;2023-05-25T02:49:13;102712.50;;;8.98;86.76
72116;BME280;59991;52.140;5.428;2023-05-25T02:49:44;102716.03;;;8.98;87.16
72116;BME280;59991;52.140;5.428;2023-05-25T02:50:16;102708.00;;;8.93;87.50
72116;BME280;59991;52.140;5.428;2023-05-25T02:50:47;102719.88;;;8.97;87.19
72116;BME280;59991;52.140;5.428;2023-05-25T02:51:19;102712.66;;;8.93;87.59
72116;BME280;59991;52.140;5.428;2023-05-25T02:51:50;102709.44;;;8.91;87.97
72116;BME280;59991;52.140;5.428;2023-05-25T02:52:22;102710.09;;;8.88;88.27
72116;BME280;59991;52.140;5.428;2023-05-25T02:52:56;102716.81;;;8.90;88.48
72116;BME280;59991;52.140;5.428;2023-05-25T02:53:27;102720.34;;;8.91;88.37
72116;BME280;59991;52.140;5.428;2023-05-25T02:54:16;102714.41;;;8.89;88.26
72116;BME280;59991;52.140;5.428;2023-05-25T02:54:47;102716.31;;;8.88;87.90
72116;BME280;59991;52.140;5.428;2023-05-25T02:55:19;102710.88;;;8.88;88.20
72116;BME280;59991;52.140;5.428;2023-05-25T02:55:50;102721.78;;;8.88;87.69
72116;BME280;59991;52.140;5.428;2023-05-25T02:56:23;102716.97;;;8.85;88.34
72116;BME280;59991;52.140;5.428;2023-05-25T02:56:54;102720.16;;;8.87;88.35
72116;BME280;59991;52.140;5.428;2023-05-25T02:57:26;102718.09;;;8.84;88.07
72116;BME280;59991;52.140;5.428;2023-05-25T02:57:58;102711.53;;;8.85;88.47
72116;BME280;59991;52.140;5.428;2023-05-25T02:58:31;102720.81;;;8.84;88.65
72116;BME280;59991;52.140;5.428;2023-05-25T02:59:02;102718.09;;;8.84;88.69